Time;durP1;ratioP1;P1;durP2;ratioP2;P2;SDS_P1;SDS_P2;PMS_P1;PMS_P2;Temp;Humidity;BMP_temperature;BMP_pressure;BME280_temperature;BME280_humidity;BME280_pressure;Samples;Min_cycle;Max_cycle;Signal;HPM_P1;HPM_P2
2022/03/31 00:00:34;;;;;;;1.50;1.10;;;8.90;94.80;;;;;;5053033;28;20462;-92
2022/03/31 00:03:05;;;;;;;1.50;1.10;;;8.90;94.50;;;;;;5054669;28;20466;-92
2022/03/31 00:05:40;;;;;;;1.50;1.20;;;8.90;94.20;;;;;;5054077;28;20462;-92
2022/03/31 00:08:09;;;;;;;1.50;1.20;;;9.00;94.80;;;;;;5053648;28;20461;-91
2022/03/31 00:10:39;;;;;;;1.50;1.20;;;9.00;95.50;;;;;;5054989;28;20520;-91
2022/03/31 00:13:09;;;;;;;1.50;1.20;;;9.00;94.50;;;;;;5056005;28;20462;-91
2022/03/31 00:15:36;;;;;;;1.50;1.10;;;8.90;94.30;;;;;;5055879;28;20505;-91
2022/03/31 00:18:06;;;;;;;1.50;1.10;;;9.00;94.60;;;;;;5061667;28;21043;-92
2022/03/31 00:34:03;;;;;;;1.50;1.13;;;8.90;96.60;;;;;;5058728;28;20437;-93
2022/03/31 00:36:30;;;;;;;1.50;1.10;;;8.90;96.90;;;;;;5066990;28;20470;-92
2022/03/31 00:41:46;;;;;;;1.50;1.10;;;8.80;97.00;;;;;;5060001;28;20500;-92
2022/03/31 00:44:13;;;;;;;1.50;1.20;;;8.80;97.20;;;;;;5059472;28;20466;-93
2022/03/31 00:49:47;;;;;;;1.50;1.20;;;8.80;97.90;;;;;;5054595;28;20462;-92
2022/03/31 00:58:51;;;;;;;1.50;1.30;;;8.70;98.20;;;;;;5033004;28;20463;-92
2022/03/31 01:01:19;;;;;;;1.50;1.10;;;8.60;98.20;;;;;;5037342;28;20455;-92
2022/03/31 01:07:09;;;;;;;1.50;1.30;;;8.50;98.20;;;;;;4891124;29;20492;-91
2022/03/31 01:09:36;;;;;;;1.50;1.20;;;8.50;98.20;;;;;;4945621;28;20469;-91
2022/03/31 01:12:04;;;;;;;1.50;1.20;;;8.50;98.20;;;;;;5038817;28;21129;-92
2022/03/31 01:14:32;;;;;;;1.50;1.17;;;8.50;98.20;;;;;;5051752;28;20462;-91
2022/03/31 01:17:00;;;;;;;1.50;1.20;;;8.40;98.20;;;;;;5051260;28;20476;-91
2022/03/31 01:19:27;;;;;;;2.33;2.13;;;8.40;98.20;;;;;;5051800;28;20489;-92
2022/03/31 01:21:55;;;;;;;1.50;1.20;;;8.40;98.20;;;;;;5050935;28;20458;-92
2022/03/31 01:24:38;;;;;;;1.50;1.10;;;8.40;98.20;;;;;;5050906;28;20954;-92
2022/03/31 01:27:11;;;;;;;1.50;1.20;;;8.40;98.20;;;;;;5047973;28;20472;-91
2022/03/31 01:29:41;;;;;;;1.50;1.20;;;8.40;98.20;;;;;;5034111;28;20488;-91
2022/03/31 01:32:16;;;;;;;1.50;1.20;;;8.40;98.20;;;;;;5051066;28;20982;-91
2022/03/31 01:34:48;;;;;;;1.50;1.30;;;8.30;98.20;;;;;;5046984;28;20865;-91
2022/03/31 01:43:09;;;;;;;1.60;1.50;;;8.30;98.20;;;;;;5030930;28;20452;-90
2022/03/31 01:48:12;;;;;;;1.60;1.40;;;8.20;98.20;;;;;;5082454;22;20547;-91
2022/03/31 01:50:50;;;;;;;1.50;1.30;;;8.20;98.20;;;;;;5070488;28;20480;-90
2022/03/31 01:53:23;;;;;;;17.33;2.90;;;8.20;98.20;;;;;;5070503;28;20461;-91
2022/03/31 01:55:57;;;;;;;1.50;1.20;;;8.30;98.20;;;;;;5069464;28;20933;-92
2022/03/31 01:58:45;;;;;;;1.50;1.20;;;8.30;98.20;;;;;;5070391;28;20483;-90
2022/03/31 02:01:29;;;;;;;1.50;1.30;;;8.30;98.20;;;;;;5057515;28;20474;-91
2022/03/31 02:03:56;;;;;;;1.53;1.40;;;8.40;98.20;;;;;;5051756;28;20474;-91
2022/03/31 02:06:29;;;;;;;1.50;1.10;;;8.30;98.20;;;;;;5052643;28;20478;-92
2022/03/31 02:09:20;;;;;;;1.50;1.20;;;8.30;98.20;;;;;;5043380;28;20466;-91
2022/03/31 02:11:59;;;;;;;1.50;1.10;;;8.20;98.20;;;;;;5050477;28;20949;-90
2022/03/31 02:14:46;;;;;;;1.50;1.20;;;8.20;98.20;;;;;;5052660;28;21016;-91
2022/03/31 02:17:17;;;;;;;1.50;1.20;;;8.20;98.20;;;;;;5050099;28;20559;-91
2022/03/31 02:43:28;;;;;;;1.60;1.50;;;7.90;98.20;;;;;;5073498;22;20512;-75
2022/03/31 02:45:55;;;;;;;1.50;1.20;;;7.80;98.20;;;;;;5048342;28;20941;-74
2022/03/31 02:48:22;;;;;;;1.60;1.30;;;7.90;98.20;;;;;;5047356;28;21128;-75
2022/03/31 02:50:48;;;;;;;1.50;1.20;;;7.90;98.20;;;;;;5042785;28;20482;-75
2022/03/31 02:56:00;;;;;;;1.50;1.20;;;7.90;98.20;;;;;;5042051;28;20536;-75
2022/03/31 02:58:28;;;;;;;1.50;1.20;;;7.90;98.20;;;;;;5046283;28;20466;-75
2022/03/31 03:00:55;;;;;;;1.50;1.20;;;8.00;98.20;;;;;;5041321;28;20482;-74
2022/03/31 03:03:22;;;;;;;1.50;1.10;;;8.10;98.20;;;;;;5047075;28;21086;-75
2022/03/31 03:05:49;;;;;;;1.50;1.30;;;8.20;98.20;;;;;;5048247;28;20460;-74
2022/03/31 03:08:15;;;;;;;1.50;1.20;;;8.20;98.20;;;;;;5044270;28;20471;-75
2022/03/31 03:13:20;;;;;;;1.50;1.20;;;8.20;98.20;;;;;;5040947;28;20561;-73
2022/03/31 03:15:49;;;;;;;1.50;1.20;;;8.20;98.20;;;;;;5046984;28;20497;-74
2022/03/31 03:18:18;;;;;;;1.50;1.20;;;8.20;98.20;;;;;;5047399;28;20910;-73
2022/03/31 03:20:45;;;;;;;1.50;1.20;;;8.20;98.20;;;;;;5043527;28;20497;-73
2022/03/31 03:23:12;;;;;;;1.50;1.10;;;8.20;98.20;;;;;;5066457;28;20461;-74
2022/03/31 03:25:39;;;;;;;1.50;1.10;;;8.00;98.20;;;;;;5061874;28;20457;-73
2022/03/31 03:28:06;;;;;;;1.50;1.30;;;7.90;98.20;;;;;;5065699;28;20970;-73
2022/03/31 03:30:32;;;;;;;1.50;1.20;;;7.80;98.20;;;;;;5062272;28;20469;-74
2022/03/31 03:33:00;;;;;;;1.50;1.20;;;7.70;98.20;;;;;;5063640;28;20485;-73
2022/03/31 03:35:27;;;;;;;1.57;1.40;;;7.70;98.20;;;;;;5066057;28;20461;-73
2022/03/31 03:37:55;;;;;;;1.50;1.20;;;7.70;98.20;;;;;;5066676;28;20453;-74
2022/03/31 03:40:22;;;;;;;1.50;1.20;;;7.70;98.20;;;;;;5066186;28;20556;-73
2022/03/31 03:42:49;;;;;;;1.50;1.20;;;7.60;98.20;;;;;;5060988;28;20480;-73
2022/03/31 03:45:16;;;;;;;1.50;1.30;;;7.60;98.20;;;;;;5065574;28;20457;-74
2022/03/31 03:47:43;;;;;;;1.80;1.20;;;7.50;98.20;;;;;;5058319;28;20530;-73
2022/03/31 03:50:12;;;;;;;1.50;1.20;;;7.50;98.20;;;;;;5064557;28;20479;-73
2022/03/31 03:52:39;;;;;;;1.50;1.20;;;7.50;98.20;;;;;;5063942;28;20921;-73
2022/03/31 03:55:08;;;;;;;1.53;1.20;;;7.40;98.20;;;;;;5069026;28;20476;-73
2022/03/31 03:57:35;;;;;;;1.50;1.20;;;7.40;98.20;;;;;;5066243;28;20485;-73
2022/03/31 04:00:02;;;;;;;1.50;1.37;;;7.40;98.20;;;;;;5064189;28;20457;-73
2022/03/31 04:02:28;;;;;;;1.50;1.23;;;7.40;98.20;;;;;;5066651;28;20484;-73
2022/03/31 04:04:55;;;;;;;1.50;1.20;;;7.30;98.20;;;;;;5059334;28;20465;-73
2022/03/31 04:07:25;;;;;;;1.50;1.20;;;7.30;98.20;;;;;;5069936;28;20453;-72
2022/03/31 04:09:51;;;;;;;1.50;1.30;;;7.20;98.20;;;;;;5069859;28;20827;-72
2022/03/31 04:12:18;;;;;;;1.50;1.20;;;7.20;98.20;;;;;;5066219;28;20493;-72
2022/03/31 04:14:45;;;;;;;1.50;1.20;;;7.20;98.20;;;;;;5064869;28;20457;-73
2022/03/31 04:17:12;;;;;;;1.50;1.20;;;7.20;98.20;;;;;;5069725;28;20492;-73
2022/03/31 04:19:39;;;;;;;1.50;1.20;;;7.20;98.20;;;;;;5068361;28;20468;-73
2022/03/31 04:22:06;;;;;;;1.50;1.23;;;7.20;98.20;;;;;;5068374;28;20484;-73
2022/03/31 04:24:34;;;;;;;1.50;1.23;;;7.20;98.20;;;;;;5069168;28;20889;-73
2022/03/31 04:27:05;;;;;;;1.50;1.20;;;7.20;98.20;;;;;;5061455;28;20461;-73
2022/03/31 04:29:32;;;;;;;1.50;1.20;;;7.20;98.20;;;;;;5067775;28;20469;-73
2022/03/31 04:31:59;;;;;;;2.10;1.87;;;7.20;98.20;;;;;;5063177;28;20490;-73
2022/03/31 04:34:25;;;;;;;1.50;1.20;;;7.20;98.20;;;;;;5069456;28;20476;-73
2022/03/31 04:36:52;;;;;;;1.50;1.20;;;7.10;98.20;;;;;;5066824;28;20492;-73
2022/03/31 04:39:19;;;;;;;1.57;1.30;;;7.10;98.20;;;;;;5063427;28;20457;-74
2022/03/31 04:41:47;;;;;;;1.60;1.30;;;7.10;98.20;;;;;;5066991;28;20503;-73
2022/03/31 04:44:14;;;;;;;1.80;1.70;;;7.10;98.20;;;;;;5065754;28;20468;-74
2022/03/31 04:46:41;;;;;;;1.87;1.57;;;7.10;98.20;;;;;;5066316;28;20456;-73
2022/03/31 04:49:08;;;;;;;2.07;1.87;;;7.10;98.20;;;;;;5063397;28;20458;-74
2022/03/31 04:51:35;;;;;;;1.50;1.20;;;7.10;98.20;;;;;;5068427;28;20481;-75
2022/03/31 04:54:01;;;;;;;1.50;1.30;;;7.10;98.20;;;;;;5070449;28;20822;-76
2022/03/31 04:56:28;;;;;;;1.50;1.20;;;7.10;98.20;;;;;;5070111;28;20564;-77
2022/03/31 04:58:57;;;;;;;1.50;1.20;;;7.00;98.20;;;;;;5067215;28;20477;-74
2022/03/31 05:01:23;;;;;;;1.50;1.20;;;6.90;98.20;;;;;;5067298;28;20576;-75
2022/03/31 05:03:51;;;;;;;1.50;1.30;;;6.90;98.20;;;;;;5067623;28;20472;-74
2022/03/31 05:06:18;;;;;;;1.57;1.30;;;6.90;98.20;;;;;;5070197;28;20829;-77
2022/03/31 05:08:45;;;;;;;1.50;1.30;;;6.90;98.20;;;;;;5070479;28;20493;-73
2022/03/31 05:11:12;;;;;;;1.50;1.20;;;6.80;98.20;;;;;;5069742;28;20486;-77
2022/03/31 05:13:39;;;;;;;1.50;1.30;;;6.80;98.20;;;;;;5068933;28;20773;-77
2022/03/31 05:16:07;;;;;;;1.53;1.20;;;6.80;98.20;;;;;;5065046;28;20803;-75
2022/03/31 05:18:34;;;;;;;1.50;1.30;;;6.70;98.20;;;;;;5067327;28;20945;-76
2022/03/31 05:21:01;;;;;;;1.50;1.20;;;6.70;98.20;;;;;;5065636;28;20462;-79
2022/03/31 05:23:28;;;;;;;2.53;2.33;;;6.70;98.20;;;;;;5068896;28;20812;-73
2022/03/31 05:25:55;;;;;;;1.50;1.20;;;6.70;98.20;;;;;;5069735;28;20484;-76
2022/03/31 05:28:22;;;;;;;1.57;1.30;;;6.70;98.20;;;;;;5065050;28;20464;-76
2022/03/31 05:30:49;;;;;;;1.50;1.30;;;6.70;98.20;;;;;;5061706;28;20492;-75
2022/03/31 05:33:17;;;;;;;1.60;1.43;;;6.70;98.20;;;;;;5062145;28;20469;-75
2022/03/31 05:35:44;;;;;;;1.50;1.23;;;6.70;98.20;;;;;;5065098;28;20450;-73
2022/03/31 05:38:11;;;;;;;1.53;1.20;;;6.70;98.20;;;;;;5066500;28;20492;-74
2022/03/31 05:40:39;;;;;;;1.60;1.40;;;6.70;98.20;;;;;;5069771;28;20461;-77
2022/03/31 05:43:05;;;;;;;1.53;1.30;;;6.70;98.20;;;;;;5068206;28;20477;-76
2022/03/31 05:45:32;;;;;;;1.53;1.30;;;6.70;98.20;;;;;;5070918;28;20469;-76
2022/03/31 05:47:59;;;;;;;1.80;1.70;;;6.70;98.20;;;;;;5066320;28;20708;-76
2022/03/31 05:50:27;;;;;;;1.53;1.30;;;6.80;98.20;;;;;;5069528;28;20479;-76
2022/03/31 05:52:54;;;;;;;1.57;1.40;;;6.70;98.20;;;;;;5064302;28;20496;-73
2022/03/31 05:55:21;;;;;;;1.60;1.40;;;6.70;98.20;;;;;;5063075;28;20546;-73
2022/03/31 05:57:49;;;;;;;1.50;1.20;;;6.70;98.20;;;;;;5061538;28;20485;-79
2022/03/31 06:00:18;;;;;;;1.50;1.30;;;6.70;98.20;;;;;;5067974;28;20534;-76
2022/03/31 06:02:46;;;;;;;1.57;1.30;;;6.60;98.20;;;;;;5060040;28;20477;-73
2022/03/31 06:05:13;;;;;;;1.57;1.30;;;6.60;98.20;;;;;;5065791;28;20469;-77
2022/03/31 06:07:42;;;;;;;1.50;1.20;;;6.60;98.20;;;;;;5068594;28;20523;-74
2022/03/31 06:10:09;;;;;;;1.53;1.30;;;6.60;98.20;;;;;;5071587;28;20466;-75
2022/03/31 06:12:37;;;;;;;1.50;1.20;;;6.60;98.20;;;;;;5063138;28;20997;-74
2022/03/31 06:15:06;;;;;;;1.50;1.20;;;6.60;98.20;;;;;;5071440;28;20477;-78
2022/03/31 06:17:34;;;;;;;1.53;1.30;;;6.60;98.20;;;;;;5063169;28;20543;-74
2022/03/31 06:20:00;;;;;;;1.50;1.20;;;6.70;98.20;;;;;;5067421;28;20461;-77
2022/03/31 06:22:27;;;;;;;1.50;1.20;;;6.70;98.20;;;;;;5068860;28;20593;-78
2022/03/31 06:24:55;;;;;;;1.53;1.30;;;6.80;98.20;;;;;;5071407;28;20465;-75
2022/03/31 06:27:22;;;;;;;1.50;1.20;;;6.80;98.20;;;;;;5070367;28;20493;-75
2022/03/31 06:29:49;;;;;;;1.50;1.20;;;6.80;98.20;;;;;;5070570;28;20476;-75
2022/03/31 06:32:17;;;;;;;1.50;1.20;;;6.90;98.20;;;;;;5069753;28;20481;-74
2022/03/31 06:34:44;;;;;;;1.50;1.20;;;6.90;98.20;;;;;;5070037;28;20492;-75
2022/03/31 06:37:11;;;;;;;1.50;1.20;;;7.00;98.20;;;;;;5069415;28;20477;-72
2022/03/31 06:39:38;;;;;;;1.50;1.20;;;7.00;98.20;;;;;;5069091;28;20493;-75
2022/03/31 06:42:07;;;;;;;1.53;1.30;;;7.00;98.20;;;;;;5058318;28;20493;-75
2022/03/31 06:44:34;;;;;;;1.60;1.37;;;6.90;98.20;;;;;;5072260;28;20465;-76
2022/03/31 06:47:00;;;;;;;1.60;1.20;;;6.90;98.20;;;;;;5066540;28;20568;-75
2022/03/31 06:49:27;;;;;;;1.50;1.13;;;7.00;98.20;;;;;;5070041;28;20969;-76
2022/03/31 06:51:55;;;;;;;1.53;1.30;;;7.10;98.20;;;;;;5065770;28;20481;-77
2022/03/31 06:54:21;;;;;;;1.50;1.30;;;7.10;98.20;;;;;;5068806;28;20541;-78
2022/03/31 06:56:49;;;;;;;1.50;1.30;;;7.20;98.20;;;;;;5063969;28;20493;-75
2022/03/31 06:59:17;;;;;;;1.50;1.20;;;7.20;98.20;;;;;;5069721;28;20469;-77
2022/03/31 07:01:43;;;;;;;1.50;1.20;;;7.10;98.20;;;;;;5067653;28;20477;-74
2022/03/31 07:04:11;;;;;;;1.57;1.30;;;7.10;98.20;;;;;;5063979;28;20480;-77
2022/03/31 07:06:38;;;;;;;1.50;1.20;;;7.20;98.20;;;;;;5068362;28;20449;-76
2022/03/31 07:09:04;;;;;;;1.50;1.20;;;7.10;98.20;;;;;;5068176;28;20820;-77
2022/03/31 07:11:31;;;;;;;1.50;1.20;;;7.10;98.20;;;;;;5068311;28;20580;-76
2022/03/31 07:14:01;;;;;;;1.60;1.30;;;7.20;98.20;;;;;;5069780;28;20966;-73
2022/03/31 07:16:30;;;;;;;1.50;1.30;;;7.30;98.20;;;;;;5066731;28;20469;-75
2022/03/31 07:18:58;;;;;;;1.50;1.20;;;7.30;98.20;;;;;;5067381;28;20900;-74
2022/03/31 07:21:26;;;;;;;1.50;1.20;;;7.20;98.20;;;;;;5060551;28;20497;-75
2022/03/31 07:23:53;;;;;;;1.50;1.20;;;7.20;98.20;;;;;;5077313;28;20465;-75
2022/03/31 07:26:22;;;;;;;1.53;1.20;;;7.30;98.20;;;;;;5071916;28;20906;-75
2022/03/31 07:28:49;;;;;;;1.50;1.20;;;7.20;98.20;;;;;;5075098;28;20465;-77
2022/03/31 07:31:16;;;;;;;1.50;1.10;;;7.20;98.20;;;;;;5073038;28;20576;-76
2022/03/31 07:33:45;;;;;;;1.50;1.30;;;7.20;98.20;;;;;;5072418;28;20457;-76
2022/03/31 07:36:13;;;;;;;1.50;1.20;;;7.20;98.20;;;;;;5068522;28;20462;-76
2022/03/31 07:38:40;;;;;;;1.50;1.27;;;7.20;98.20;;;;;;5074546;28;20841;-74
2022/03/31 07:41:06;;;;;;;1.50;1.20;;;7.30;98.20;;;;;;5069874;28;21036;-75
2022/03/31 07:43:34;;;;;;;1.50;1.20;;;7.30;98.20;;;;;;5070111;28;20457;-77
2022/03/31 07:46:01;;;;;;;1.50;1.20;;;7.30;98.20;;;;;;5073351;28;20465;-76
2022/03/31 07:48:28;;;;;;;1.50;1.20;;;7.30;98.20;;;;;;5070087;28;20540;-77
2022/03/31 07:50:58;;;;;;;1.50;1.20;;;7.30;98.20;;;;;;5072100;28;20465;-74
2022/03/31 07:53:25;;;;;;;1.50;1.20;;;7.30;98.20;;;;;;5069661;28;20473;-75
2022/03/31 07:55:52;;;;;;;1.50;1.30;;;7.30;98.20;;;;;;5071653;28;20493;-72
2022/03/31 07:58:19;;;;;;;1.50;1.20;;;7.30;98.20;;;;;;5072878;28;20496;-77
2022/03/31 08:00:50;;;;;;;1.50;1.20;;;7.30;98.20;;;;;;5073432;28;20774;-75
2022/03/31 08:03:18;;;;;;;1.50;1.10;;;7.30;98.20;;;;;;5068594;28;20929;-74
2022/03/31 08:05:45;;;;;;;1.57;1.20;;;7.30;98.20;;;;;;5071175;28;20495;-76
2022/03/31 08:08:14;;;;;;;1.50;1.20;;;7.30;98.20;;;;;;5070964;28;20473;-78
2022/03/31 08:10:43;;;;;;;6.20;4.03;;;7.40;98.20;;;;;;5073643;28;21034;-77
2022/03/31 08:13:10;;;;;;;1.50;1.30;;;7.50;98.20;;;;;;5063649;28;20525;-77
2022/03/31 08:15:39;;;;;;;1.50;1.10;;;7.50;98.20;;;;;;5071852;28;20458;-76
2022/03/31 08:18:07;;;;;;;1.50;1.20;;;7.40;98.20;;;;;;5079220;28;20683;-76
2022/03/31 08:20:34;;;;;;;1.50;1.10;;;7.30;98.20;;;;;;5074999;28;20465;-76
2022/03/31 08:23:01;;;;;;;1.50;1.23;;;7.40;98.20;;;;;;5071007;28;20503;-74
2022/03/31 08:25:29;;;;;;;1.50;1.20;;;7.40;98.20;;;;;;5073338;28;20464;-77
2022/03/31 08:27:56;;;;;;;1.50;1.20;;;7.40;98.20;;;;;;5067993;28;20503;-76
2022/03/31 08:30:24;;;;;;;1.50;1.20;;;7.50;98.20;;;;;;5072331;28;20495;-78
2022/03/31 08:32:50;;;;;;;1.50;1.10;;;7.50;98.20;;;;;;5068376;28;20493;-73
2022/03/31 08:35:17;;;;;;;1.50;1.20;;;7.60;98.20;;;;;;5067313;28;20488;-75
2022/03/31 08:37:44;;;;;;;1.53;1.20;;;7.60;98.20;;;;;;5072780;28;20538;-76
2022/03/31 08:40:13;;;;;;;1.50;1.20;;;7.50;98.20;;;;;;5071556;28;20544;-75
2022/03/31 08:42:42;;;;;;;1.50;1.30;;;7.30;98.20;;;;;;5070682;28;20489;-74
2022/03/31 08:45:12;;;;;;;1.50;1.20;;;7.30;98.20;;;;;;5067319;28;20458;-74
2022/03/31 08:47:40;;;;;;;1.50;1.20;;;7.30;98.20;;;;;;5066283;28;20458;-75
2022/03/31 08:50:10;;;;;;;1.50;1.20;;;7.40;98.20;;;;;;5069533;28;20465;-76
2022/03/31 08:52:37;;;;;;;1.53;1.30;;;7.40;98.20;;;;;;5068196;28;20486;-75
2022/03/31 08:55:05;;;;;;;1.50;1.20;;;7.40;98.20;;;;;;5071880;28;20461;-76
2022/03/31 08:57:42;;;;;;;1.50;1.17;;;7.50;98.20;;;;;;5065418;28;20489;-77
2022/03/31 09:00:11;;;;;;;1.50;1.10;;;7.40;98.20;;;;;;5071688;28;20489;-74
2022/03/31 09:02:38;;;;;;;1.50;1.20;;;7.50;98.20;;;;;;5063847;28;20568;-73
2022/03/31 09:05:09;;;;;;;1.50;1.20;;;7.50;98.20;;;;;;5063935;28;20469;-75
2022/03/31 09:07:36;;;;;;;1.53;1.30;;;7.50;98.20;;;;;;5069246;28;20549;-74
2022/03/31 09:10:04;;;;;;;1.50;1.20;;;7.50;98.20;;;;;;5071337;28;20469;-74
2022/03/31 09:12:38;;;;;;;1.50;1.10;;;7.60;98.20;;;;;;5084429;22;20509;-75
2022/03/31 09:15:14;;;;;;;1.50;1.10;;;7.70;98.20;;;;;;5066759;28;20468;-74
2022/03/31 09:17:41;;;;;;;1.50;1.20;;;7.70;98.20;;;;;;5070595;28;20507;-72
2022/03/31 09:20:09;;;;;;;1.50;1.30;;;7.70;98.20;;;;;;5068782;28;20465;-73
2022/03/31 09:22:45;;;;;;;1.50;1.20;;;7.70;98.20;;;;;;5068149;28;20477;-73
2022/03/31 09:25:12;;;;;;;1.50;1.20;;;7.70;98.20;;;;;;5069258;28;20465;-73
2022/03/31 09:27:39;;;;;;;1.50;1.30;;;7.60;98.20;;;;;;5065898;28;20510;-74
2022/03/31 09:30:06;;;;;;;1.50;1.20;;;7.60;98.20;;;;;;5068742;28;20506;-73
2022/03/31 09:32:34;;;;;;;1.50;1.20;;;7.60;98.20;;;;;;5059468;28;20485;-73
2022/03/31 09:35:08;;;;;;;1.50;1.20;;;7.60;98.20;;;;;;5052092;28;20466;-73
2022/03/31 09:37:35;;;;;;;2.00;1.80;;;7.70;98.20;;;;;;5049286;28;20482;-73
2022/03/31 09:40:01;;;;;;;1.50;1.20;;;7.80;98.20;;;;;;5068746;28;20806;-72
2022/03/31 09:42:28;;;;;;;1.50;1.20;;;7.90;98.20;;;;;;5055501;28;20482;-73
2022/03/31 09:44:59;;;;;;;1.50;1.20;;;7.90;98.20;;;;;;5061814;28;20457;-73
2022/03/31 09:47:28;;;;;;;1.50;1.20;;;8.00;98.20;;;;;;5068228;28;20464;-73
2022/03/31 09:49:56;;;;;;;1.50;1.20;;;8.00;98.20;;;;;;5068742;28;21146;-73
2022/03/31 09:52:24;;;;;;;1.50;1.10;;;8.00;98.20;;;;;;5056116;28;20505;-73
2022/03/31 09:54:51;;;;;;;1.50;1.10;;;8.10;98.20;;;;;;5056718;28;20511;-73
2022/03/31 09:57:21;;;;;;;1.50;1.17;;;8.00;98.20;;;;;;5057111;28;20466;-73
2022/03/31 09:59:53;;;;;;;1.53;1.20;;;8.00;98.20;;;;;;5068512;28;20469;-73
2022/03/31 10:02:21;;;;;;;1.50;1.20;;;8.00;98.20;;;;;;5054664;28;20478;-73
2022/03/31 10:04:48;;;;;;;1.50;1.20;;;8.00;98.20;;;;;;5048555;28;20490;-73
2022/03/31 10:07:17;;;;;;;1.50;1.10;;;8.00;98.20;;;;;;5046586;28;20454;-73
2022/03/31 10:09:44;;;;;;;1.50;1.20;;;8.10;98.20;;;;;;5048147;28;20466;-73
2022/03/31 10:12:19;;;;;;;1.50;1.13;;;8.10;98.20;;;;;;5049189;28;20529;-72
2022/03/31 10:14:54;;;;;;;1.50;1.20;;;8.10;98.20;;;;;;5067246;28;20971;-73
2022/03/31 10:17:26;;;;;;;1.57;1.20;;;8.10;98.20;;;;;;5054853;28;20458;-73
2022/03/31 10:19:54;;;;;;;1.50;1.20;;;8.20;98.20;;;;;;5048209;28;20463;-73
2022/03/31 10:25:10;;;;;;;1.50;1.17;;;8.20;98.20;;;;;;5061922;28;20444;-73
2022/03/31 10:27:39;;;;;;;1.50;1.20;;;8.20;98.20;;;;;;5053526;28;20462;-72
2022/03/31 10:30:12;;;;;;;1.50;1.20;;;8.20;98.20;;;;;;5047060;28;20560;-73
2022/03/31 10:32:50;;;;;;;1.50;1.20;;;8.20;98.20;;;;;;5047297;28;20492;-72
2022/03/31 10:35:22;;;;;;;1.50;1.20;;;8.20;98.20;;;;;;5047457;28;21018;-72
2022/03/31 10:37:51;;;;;;;1.50;1.20;;;8.20;98.20;;;;;;5051992;28;21070;-72
2022/03/31 10:40:29;;;;;;;1.50;1.20;;;8.20;98.20;;;;;;5067212;28;20469;-72
2022/03/31 10:42:56;;;;;;;1.50;1.10;;;8.30;98.20;;;;;;5050336;28;20482;-72
2022/03/31 10:45:35;;;;;;;1.50;1.10;;;8.30;98.20;;;;;;5059442;28;20472;-74
2022/03/31 10:48:14;;;;;;;1.50;1.10;;;8.30;98.20;;;;;;5049507;28;20473;-75
2022/03/31 10:50:41;;;;;;;1.50;1.17;;;8.30;98.20;;;;;;5047552;28;20469;-75
2022/03/31 10:53:09;;;;;;;1.50;1.20;;;8.30;98.20;;;;;;5068622;28;20485;-74
2022/03/31 10:55:38;;;;;;;1.50;1.10;;;8.30;98.20;;;;;;5050270;28;20539;-75
2022/03/31 10:58:06;;;;;;;1.60;1.20;;;8.30;98.20;;;;;;5046976;28;20493;-74
2022/03/31 11:00:33;;;;;;;1.50;1.10;;;8.30;98.20;;;;;;5050054;28;20462;-74
2022/03/31 11:03:00;;;;;;;1.50;1.10;;;8.30;98.20;;;;;;5051578;28;20488;-72
2022/03/31 11:05:28;;;;;;;1.50;1.20;;;8.30;98.20;;;;;;5051378;28;20973;-72
2022/03/31 11:08:03;;;;;;;1.50;1.20;;;8.40;98.20;;;;;;5050331;28;20525;-73
2022/03/31 11:10:41;;;;;;;1.50;1.20;;;8.30;98.20;;;;;;5051083;28;20461;-72
2022/03/31 11:13:08;;;;;;;1.50;1.20;;;8.40;98.20;;;;;;5050541;28;20498;-72
2022/03/31 11:15:35;;;;;;;1.50;1.10;;;8.40;98.20;;;;;;5051354;28;20490;-72
2022/03/31 11:18:03;;;;;;;1.50;1.20;;;8.40;98.20;;;;;;5050480;28;20478;-73
2022/03/31 11:20:30;;;;;;;1.50;1.10;;;8.40;98.20;;;;;;5050479;28;20477;-73
2022/03/31 11:22:59;;;;;;;1.57;1.33;;;8.50;98.20;;;;;;5050315;28;20493;-74
2022/03/31 11:25:27;;;;;;;1.50;1.10;;;8.50;98.20;;;;;;5051295;28;20466;-73
2022/03/31 11:27:56;;;;;;;1.50;1.10;;;8.60;98.20;;;;;;5052768;28;20455;-73
2022/03/31 11:30:25;;;;;;;1.50;1.10;;;8.60;98.20;;;;;;5049975;28;20497;-73
2022/03/31 11:32:54;;;;;;;2.13;1.93;;;8.60;98.20;;;;;;5050111;28;20482;-73
2022/03/31 11:35:24;;;;;;;1.50;1.17;;;8.60;98.20;;;;;;5053048;28;20458;-73
2022/03/31 11:37:54;;;;;;;1.50;1.17;;;8.60;98.20;;;;;;5050205;28;20541;-73
2022/03/31 11:40:23;;;;;;;1.50;1.10;;;8.60;98.20;;;;;;5050564;28;20466;-73
2022/03/31 11:42:51;;;;;;;1.50;1.10;;;8.60;98.20;;;;;;5053615;28;20478;-73
2022/03/31 11:45:32;;;;;;;1.50;1.20;;;8.60;98.20;;;;;;5052514;28;20469;-73
2022/03/31 11:48:01;;;;;;;1.50;1.20;;;8.60;98.20;;;;;;5050085;28;20837;-73
2022/03/31 11:50:29;;;;;;;1.50;1.20;;;8.60;98.20;;;;;;5049800;28;20481;-72
2022/03/31 11:52:56;;;;;;;1.50;1.10;;;8.60;98.20;;;;;;5055034;28;20872;-73
2022/03/31 11:55:23;;;;;;;1.50;1.10;;;8.70;98.20;;;;;;5053775;28;20830;-73
2022/03/31 11:57:55;;;;;;;1.50;1.20;;;8.70;98.20;;;;;;5049953;28;20473;-72
2022/03/31 12:00:23;;;;;;;1.50;1.10;;;8.80;98.20;;;;;;5055143;28;20916;-72
2022/03/31 12:03:03;;;;;;;1.50;1.17;;;8.80;98.20;;;;;;5049804;28;20573;-73
2022/03/31 12:05:30;;;;;;;1.53;1.20;;;8.90;98.20;;;;;;5052488;28;20896;-74
2022/03/31 12:07:59;;;;;;;1.50;1.10;;;9.00;98.20;;;;;;5051039;28;20560;-74
2022/03/31 12:10:26;;;;;;;1.50;1.10;;;9.00;98.20;;;;;;5049341;28;20463;-72
2022/03/31 12:12:55;;;;;;;1.50;1.10;;;9.10;98.20;;;;;;5050095;28;20486;-75
2022/03/31 12:15:24;;;;;;;1.50;1.10;;;9.10;98.20;;;;;;5050717;28;20598;-72
2022/03/31 12:18:07;;;;;;;1.50;1.10;;;9.10;98.20;;;;;;5052054;28;20454;-72
2022/03/31 12:20:36;;;;;;;1.50;1.10;;;9.20;98.20;;;;;;5049525;28;20458;-73
2022/03/31 12:23:05;;;;;;;1.50;1.10;;;9.20;98.20;;;;;;5053995;28;20478;-73
2022/03/31 12:25:34;;;;;;;1.50;1.10;;;9.20;98.20;;;;;;5050502;28;20974;-72
2022/03/31 12:28:06;;;;;;;1.50;1.10;;;9.20;98.20;;;;;;5050424;28;20826;-72
2022/03/31 12:30:44;;;;;;;1.50;1.20;;;9.20;98.20;;;;;;5050480;28;20466;-73
2022/03/31 12:33:20;;;;;;;1.50;1.20;;;9.30;98.20;;;;;;5050236;28;20924;-73
2022/03/31 12:35:57;;;;;;;1.50;1.20;;;9.30;98.20;;;;;;5049008;28;20816;-74
2022/03/31 12:38:43;;;;;;;1.50;1.10;;;9.30;98.20;;;;;;5049248;28;20489;-73
2022/03/31 12:41:17;;;;;;;1.50;1.10;;;9.30;98.20;;;;;;5049703;28;20477;-72
2022/03/31 12:43:54;;;;;;;1.50;1.17;;;9.30;98.20;;;;;;5049634;28;20489;-73
2022/03/31 12:46:22;;;;;;;1.50;1.10;;;9.30;98.20;;;;;;5049582;28;20466;-73
2022/03/31 12:48:54;;;;;;;1.50;1.10;;;9.30;98.20;;;;;;5049877;28;20981;-72
2022/03/31 12:51:22;;;;;;;1.50;1.10;;;9.30;98.20;;;;;;5048837;28;20459;-75
2022/03/31 12:53:49;;;;;;;1.50;1.10;;;9.30;98.20;;;;;;5049429;28;20470;-72
2022/03/31 12:56:26;;;;;;;1.50;1.10;;;9.40;98.20;;;;;;5049118;28;20469;-74
2022/03/31 12:58:55;;;;;;;1.50;1.10;;;9.40;98.20;;;;;;5048432;28;20485;-74
2022/03/31 13:01:25;;;;;;;1.50;1.03;;;9.40;98.20;;;;;;5048250;28;20533;-74
2022/03/31 13:03:54;;;;;;;1.50;1.10;;;9.40;98.20;;;;;;5050799;28;20461;-74
2022/03/31 13:06:20;;;;;;;1.50;1.10;;;9.40;98.20;;;;;;5047554;28;20469;-74
2022/03/31 13:08:47;;;;;;;1.50;1.10;;;9.50;98.20;;;;;;5048348;28;20462;-74
2022/03/31 13:11:14;;;;;;;1.50;1.20;;;9.50;98.20;;;;;;5047611;28;20562;-74
2022/03/31 13:13:42;;;;;;;1.53;1.30;;;9.60;98.20;;;;;;5051540;28;20607;-74
2022/03/31 13:16:09;;;;;;;1.50;1.10;;;9.70;98.20;;;;;;5049156;28;20474;-74
2022/03/31 13:18:36;;;;;;;1.50;1.20;;;9.80;98.20;;;;;;5049391;28;20482;-74
2022/03/31 13:21:06;;;;;;;1.60;1.20;;;9.90;98.20;;;;;;5046643;28;20474;-74
2022/03/31 13:23:33;;;;;;;1.50;1.10;;;10.00;98.20;;;;;;5049728;28;20533;-74
2022/03/31 13:26:00;;;;;;;1.50;1.10;;;10.00;98.20;;;;;;5039624;28;20488;-73
2022/03/31 13:28:27;;;;;;;1.57;1.20;;;10.00;98.20;;;;;;5062527;28;20466;-73
2022/03/31 13:30:54;;;;;;;1.50;1.10;;;10.00;98.20;;;;;;5038653;28;20470;-73
2022/03/31 13:33:23;;;;;;;1.50;1.00;;;10.00;98.20;;;;;;5072862;28;20490;-74
2022/03/31 13:35:50;;;;;;;1.50;1.10;;;10.10;98.20;;;;;;5047605;28;20489;-74
2022/03/31 13:38:18;;;;;;;1.50;1.00;;;10.10;98.20;;;;;;5045908;28;20466;-73
2022/03/31 13:40:45;;;;;;;1.50;1.10;;;10.00;98.20;;;;;;5045574;28;20471;-73
2022/03/31 13:43:12;;;;;;;1.50;1.10;;;10.00;98.20;;;;;;5044062;28;20501;-73
2022/03/31 13:45:38;;;;;;;1.50;1.10;;;9.90;98.20;;;;;;5046634;28;20733;-73
2022/03/31 13:48:06;;;;;;;1.50;1.10;;;9.80;98.20;;;;;;5045395;28;20470;-74
2022/03/31 13:50:33;;;;;;;1.50;1.10;;;9.70;98.20;;;;;;5046072;28;20485;-74
2022/03/31 13:56:00;;;;;;;1.50;1.10;;;9.30;98.20;;;;;;5043483;28;20959;-73
2022/03/31 14:01:11;;;;;;;1.50;1.10;;;9.10;98.20;;;;;;5040718;28;21142;-74
2022/03/31 14:03:40;;;;;;;1.50;1.10;;;9.00;98.20;;;;;;5047883;28;20496;-73
2022/03/31 14:06:09;;;;;;;1.50;1.10;;;8.90;98.20;;;;;;5046279;28;20836;-74
2022/03/31 14:08:36;;;;;;;1.50;1.10;;;8.80;98.20;;;;;;5046664;28;20458;-73
2022/03/31 14:11:07;;;;;;;1.50;1.20;;;8.60;98.20;;;;;;5045267;28;20466;-73
2022/03/31 14:13:35;;;;;;;1.50;1.20;;;8.40;98.20;;;;;;5046583;28;20500;-74
2022/03/31 14:16:03;;;;;;;1.50;1.10;;;8.30;98.20;;;;;;5045564;28;20474;-73
2022/03/31 14:18:30;;;;;;;1.50;1.10;;;8.30;98.20;;;;;;5048220;28;20512;-73
2022/03/31 14:20:58;;;;;;;1.50;1.20;;;8.20;98.20;;;;;;5045122;28;21482;-74